createdAt,value
2023-01-09T00:02:46.789Z,36.75
2023-01-09T00:05:52.177Z,41.60
2023-01-09T00:08:58.009Z,33.20
2023-01-09T00:12:03.779Z,38.55
2023-01-09T00:15:10.372Z,34.40
2023-01-09T00:18:16.176Z,32.85
2023-01-09T00:21:23.922Z,41.68
2023-01-09T00:24:30.306Z,30.68
2023-01-09T00:27:36.415Z,37.30
2023-01-09T00:30:41.486Z,34.50
2023-01-09T00:33:51.193Z,41.77
2023-01-09T00:36:58.921Z,39.05
2023-01-09T00:40:05.473Z,40.90
2023-01-09T00:43:11.274Z,33.20
2023-01-09T00:46:18.506Z,37.70
2023-01-09T00:49:25.078Z,35.10
2023-01-09T00:52:24.089Z,39.50
2023-01-09T00:55:30.712Z,37.35
2023-01-09T00:58:35.334Z,34.67
2023-01-09T01:01:41.988Z,25.62
2023-01-09T01:05:05.974Z,35.40
2023-01-09T01:08:11.388Z,40.65
2023-01-09T01:11:24.309Z,34.38
2023-01-09T01:14:30.276Z,34.53
2023-01-09T01:17:36.505Z,35.10
2023-01-09T01:20:42.621Z,40.23
2023-01-09T01:23:47.868Z,31.85
2023-01-09T01:26:53.858Z,39.73
2023-01-09T01:29:59.558Z,31.55
2023-01-09T01:33:05.473Z,41.70
2023-01-09T01:36:24.005Z,43.87
2023-01-09T01:39:29.983Z,24.00
2023-01-09T01:42:35.530Z,32.73
2023-01-09T01:45:46.399Z,38.67
2023-01-09T01:48:53.170Z,34.63
2023-01-09T01:52:03.091Z,36.25
2023-01-09T01:55:09.044Z,35.98
2023-01-09T01:58:18.665Z,36.83
2023-01-09T02:01:24.576Z,42.73
2023-01-09T02:04:30.539Z,34.33
2023-01-09T02:07:36.689Z,34.80
2023-01-09T02:10:42.275Z,36.80
2023-01-09T02:13:49.725Z,32.42
2023-01-09T02:17:03.483Z,30.68
2023-01-09T02:20:52.587Z,46.02
2023-01-09T02:24:25.806Z,38.53
2023-01-09T02:27:35.717Z,32.75
2023-01-09T02:31:20.550Z,33.90
2023-01-09T02:34:50.509Z,32.83
2023-01-09T02:38:09.147Z,35.38
2023-01-09T02:41:30.849Z,34.95
2023-01-09T02:44:45.656Z,43.23
2023-01-09T02:47:48.069Z,33.35
2023-01-09T02:51:13.729Z,30.82
2023-01-09T02:54:45.231Z,32.28
2023-01-09T02:58:03.520Z,38.13
2023-01-09T03:01:19.188Z,35.45
2023-01-09T03:04:41.706Z,34.65
2023-01-09T03:07:51.694Z,49.73
2023-01-09T03:11:16.285Z,52.03
2023-01-09T03:14:26.799Z,37.40
2023-01-09T03:17:43.152Z,29.57
2023-01-09T03:20:49.754Z,40.45
2023-01-09T03:24:08.449Z,29.40
2023-01-09T03:27:14.161Z,33.30
2023-01-09T03:30:20.871Z,35.45
2023-01-09T03:33:27.423Z,38.92
2023-01-09T03:36:34.902Z,42.35
2023-01-09T03:39:40.536Z,30.52
2023-01-09T03:42:46.197Z,47.73
2023-01-09T03:45:52.241Z,44.25
2023-01-09T03:48:59.240Z,41.63
2023-01-09T03:52:05.023Z,49.48
2023-01-09T03:55:10.728Z,42.80
2023-01-09T03:58:17.247Z,47.98
2023-01-09T04:01:24.439Z,46.42
2023-01-09T04:04:31.228Z,42.55
2023-01-09T04:07:36.377Z,56.08
2023-01-09T04:10:41.345Z,42.00
2023-01-09T04:13:46.998Z,40.23
2023-01-09T04:16:52.036Z,42.23
2023-01-09T04:19:58.642Z,43.28
2023-01-09T04:23:04.323Z,35.85
2023-01-09T04:26:09.899Z,50.20
2023-01-09T04:29:14.601Z,34.60
2023-01-09T04:32:19.783Z,45.30
2023-01-09T04:35:26.354Z,37.50
2023-01-09T04:38:31.580Z,40.85
2023-01-09T04:41:54.278Z,38.15
2023-01-09T04:45:01.154Z,49.88
2023-01-09T04:48:06.878Z,38.60
2023-01-09T04:51:14.109Z,31.23
2023-01-09T04:54:19.510Z,35.05
2023-01-09T04:57:25.233Z,59.27
2023-01-09T05:00:31.688Z,31.17
2023-01-09T05:03:37.125Z,40.78
2023-01-09T05:06:43.035Z,50.75
2023-01-09T05:09:48.686Z,42.05
2023-01-09T05:12:55.641Z,41.77
2023-01-09T05:16:01.786Z,41.45
2023-01-09T05:19:08.359Z,43.50
2023-01-09T05:22:13.772Z,37.55
2023-01-09T05:25:19.450Z,41.55
2023-01-09T05:28:24.167Z,36.30
2023-01-09T05:31:30.027Z,34.30
2023-01-09T05:34:35.688Z,32.50
2023-01-09T05:37:41.424Z,39.53
2023-01-09T05:40:46.997Z,43.95
2023-01-09T05:43:53.475Z,33.95
2023-01-09T05:47:02.734Z,34.18
2023-01-09T05:50:07.297Z,37.75
2023-01-09T05:53:13.514Z,33.30
2023-01-09T05:56:18.923Z,38.60
2023-01-09T05:59:25.020Z,36.05
2023-01-09T06:02:31.037Z,35.05
2023-01-09T06:05:37.301Z,33.78
2023-01-09T06:08:43.236Z,36.98
2023-01-09T06:11:48.191Z,33.33
2023-01-09T06:14:55.553Z,26.60
2023-01-09T06:18:00.976Z,32.30
2023-01-09T06:21:05.713Z,34.90
2023-01-09T06:24:15.244Z,40.33
2023-01-09T06:27:25.497Z,38.67
2023-01-09T06:30:30.510Z,52.78
2023-01-09T06:33:36.395Z,54.27
2023-01-09T06:36:47.764Z,58.83
2023-01-09T06:40:09.665Z,63.20
2023-01-09T06:43:16.535Z,71.57
2023-01-09T06:46:28.435Z,73.22
2023-01-09T06:52:39.169Z,67.25
2023-01-09T06:55:43.690Z,77.15
2023-01-09T06:58:49.152Z,73.92
2023-01-09T07:01:55.163Z,76.12
2023-01-09T07:05:00.788Z,77.60
2023-01-09T07:08:06.389Z,86.12
2023-01-09T07:11:12.039Z,75.30
2023-01-09T07:14:18.864Z,56.28
2023-01-09T07:17:26.469Z,69.40
2023-01-09T07:20:31.528Z,54.83
2023-01-09T07:23:37.225Z,47.03
2023-01-09T07:26:43.423Z,38.65
2023-01-09T07:29:48.773Z,42.75
2023-01-09T07:32:55.065Z,33.30
2023-01-09T07:36:00.779Z,25.80
2023-01-09T07:39:07.634Z,34.70
2023-01-09T07:42:14.390Z,29.70
2023-01-09T07:45:21.821Z,27.32
2023-01-09T07:48:25.481Z,24.87
2023-01-09T07:51:18.994Z,25.23
2023-01-09T07:54:25.689Z,28.60
2023-01-09T07:57:31.837Z,24.37
2023-01-09T08:00:38.175Z,28.47
2023-01-09T08:03:45.264Z,29.90
2023-01-09T08:06:51.222Z,24.82
2023-01-09T08:09:57.541Z,22.73
2023-01-09T08:13:04.486Z,25.45
2023-01-09T08:16:10.985Z,26.15
2023-01-09T08:19:18.551Z,24.60
2023-01-09T08:22:23.574Z,22.75
2023-01-09T08:25:28.489Z,20.72
2023-01-09T08:28:34.147Z,19.60
2023-01-09T08:31:39.472Z,21.15
2023-01-09T08:34:45.994Z,21.73
2023-01-09T08:37:51.219Z,19.27
2023-01-09T08:40:57.767Z,21.40
2023-01-09T08:44:21.319Z,20.88
2023-01-09T08:47:30.001Z,15.58
2023-01-09T08:50:36.248Z,19.02
2023-01-09T08:53:42.519Z,20.02
2023-01-09T08:56:47.931Z,20.17
2023-01-09T08:59:54.623Z,20.75
2023-01-09T09:03:03.304Z,20.85
2023-01-09T09:06:09.974Z,18.10
2023-01-09T09:09:15.705Z,18.80
2023-01-09T09:12:22.218Z,28.25
2023-01-09T09:15:30.176Z,13.95
2023-01-09T09:18:38.550Z,16.75
2023-01-09T09:21:44.119Z,20.05
2023-01-09T09:24:50.169Z,13.65
2023-01-09T09:27:56.384Z,14.55
2023-01-09T09:31:02.880Z,18.77
2023-01-09T09:34:08.294Z,15.00
2023-01-09T09:37:14.944Z,22.65
2023-01-09T09:40:20.924Z,21.33
2023-01-09T09:44:06.246Z,14.38
2023-01-09T09:47:45.047Z,14.05
2023-01-09T09:51:23.145Z,13.60
2023-01-09T09:54:36.050Z,15.32
2023-01-09T09:57:46.712Z,16.77
2023-01-09T10:00:52.393Z,17.77
2023-01-09T10:04:05.455Z,18.90
2023-01-09T10:07:20.066Z,18.92
2023-01-09T10:10:45.695Z,19.07
2023-01-09T10:14:22.973Z,17.52
2023-01-09T10:17:43.082Z,28.62
2023-01-09T10:21:11.045Z,15.95
2023-01-09T10:24:33.331Z,42.10
2023-01-09T10:28:06.890Z,34.33
2023-01-09T10:31:32.923Z,23.30
2023-01-09T10:34:54.562Z,19.90
2023-01-09T10:38:00.708Z,11.03
2023-01-09T10:41:14.210Z,10.32
2023-01-09T10:44:31.576Z,9.75
2023-01-09T10:47:49.819Z,7.95
2023-01-09T10:51:07.508Z,10.38
2023-01-09T10:54:14.701Z,16.37
2023-01-09T10:57:31.395Z,10.20
2023-01-09T11:00:31.581Z,10.25
2023-01-09T11:03:37.156Z,8.23
2023-01-09T11:06:56.707Z,7.42
2023-01-09T11:10:24.730Z,22.25
2023-01-09T11:13:38.585Z,13.18
2023-01-09T11:16:44.381Z,6.58
2023-01-09T11:19:50.164Z,8.23
2023-01-09T11:23:01.409Z,11.55
2023-01-09T11:26:13.258Z,7.30
2023-01-09T11:29:26.389Z,9.60
2023-01-09T11:32:39.606Z,11.03
2023-01-09T11:35:48.877Z,7.35
2023-01-09T11:39:06.441Z,8.53
2023-01-09T11:42:15.069Z,12.60
2023-01-09T11:45:34.745Z,7.00
2023-01-09T11:49:11.065Z,6.22
2023-01-09T11:52:39.923Z,8.60
2023-01-09T11:55:48.886Z,8.98
2023-01-09T11:58:58.057Z,7.12
2023-01-09T12:02:36.612Z,6.28
2023-01-09T12:05:57.843Z,6.28
2023-01-09T12:09:22.687Z,8.73
2023-01-09T12:13:01.091Z,8.63
2023-01-09T12:16:37.995Z,5.72
2023-01-09T12:19:57.296Z,14.78
2023-01-09T12:23:36.102Z,8.03
2023-01-09T12:27:01.774Z,9.05
2023-01-09T12:30:35.282Z,6.60
2023-01-09T12:33:47.218Z,8.03
2023-01-09T12:37:30.018Z,7.78
2023-01-09T12:41:06.891Z,8.98
2023-01-09T12:44:27.364Z,16.35
2023-01-09T12:47:59.579Z,11.30
2023-01-09T12:54:25.569Z,12.18
2023-01-09T12:57:48.591Z,11.00
2023-01-09T13:00:56.336Z,10.95
2023-01-09T13:04:23.120Z,14.98
2023-01-09T13:07:36.790Z,22.17
2023-01-09T13:10:48.396Z,17.27
2023-01-09T13:14:12.659Z,24.75
2023-01-09T13:17:18.028Z,17.52
2023-01-09T13:20:55.724Z,14.53
2023-01-09T13:24:36.284Z,16.77
2023-01-09T13:27:41.926Z,17.57
2023-01-09T13:31:36.975Z,16.40
2023-01-09T13:34:36.561Z,17.25
2023-01-09T13:37:45.045Z,15.48
2023-01-09T13:40:50.158Z,16.75
2023-01-09T13:44:14.559Z,11.18
2023-01-09T13:47:20.671Z,14.15
2023-01-09T13:50:40.209Z,14.75
2023-01-09T13:53:51.064Z,17.62
2023-01-09T13:57:36.633Z,16.52
2023-01-09T14:00:47.987Z,14.63
2023-01-09T14:03:53.942Z,20.43
2023-01-09T14:07:36.459Z,11.83
2023-01-09T14:10:45.159Z,25.92
2023-01-09T14:14:10.690Z,26.87
2023-01-09T14:17:05.580Z,19.12
2023-01-09T14:20:13.193Z,20.55
2023-01-09T14:23:41.794Z,23.47
2023-01-09T14:26:39.749Z,19.20
2023-01-09T14:29:54.341Z,11.10
2023-01-09T14:33:37.662Z,15.80
2023-01-09T14:36:42.904Z,11.43
2023-01-09T14:39:48.466Z,13.00
2023-01-09T14:42:54.959Z,15.13
2023-01-09T14:46:01.947Z,23.67
2023-01-09T14:49:18.847Z,23.15
2023-01-09T14:52:48.951Z,15.45
2023-01-09T14:56:06.323Z,16.37
2023-01-09T14:59:26.565Z,29.20
2023-01-09T15:05:39.205Z,45.78
2023-01-09T15:08:45.807Z,39.50
2023-01-09T15:11:53.348Z,29.27
2023-01-09T15:15:00.281Z,21.12
2023-01-09T15:18:13.658Z,15.23
2023-01-09T15:21:19.183Z,10.88
2023-01-09T15:24:36.769Z,14.25
2023-01-09T15:27:43.247Z,15.78
2023-01-09T15:30:49.980Z,15.48
2023-01-09T15:33:55.281Z,15.08
2023-01-09T15:37:01.229Z,12.37
2023-01-09T15:40:07.949Z,10.65
2023-01-09T15:43:14.301Z,12.73
2023-01-09T15:46:20.167Z,16.30
2023-01-09T15:49:26.840Z,13.62
2023-01-09T15:52:34.539Z,16.57
2023-01-09T15:55:49.338Z,14.73
2023-01-09T15:59:02.737Z,16.25
2023-01-09T16:02:27.641Z,16.10
2023-01-09T16:05:31.126Z,12.15
2023-01-09T16:08:41.398Z,24.40
2023-01-09T16:11:52.156Z,18.35
2023-01-09T16:18:34.397Z,17.32
2023-01-09T16:21:50.686Z,27.73
2023-01-09T16:24:59.072Z,19.25
2023-01-09T16:28:28.422Z,13.10
2023-01-09T16:31:43.545Z,21.35
2023-01-09T16:34:52.090Z,13.25
2023-01-09T16:37:57.291Z,14.45
2023-01-09T16:41:39.947Z,15.30
2023-01-09T16:44:43.994Z,16.52
2023-01-09T16:47:50.053Z,25.40
2023-01-09T16:50:55.800Z,18.98
2023-01-09T16:54:01.564Z,16.25
2023-01-09T16:57:08.403Z,21.48
2023-01-09T17:00:14.285Z,17.65
2023-01-09T17:03:20.324Z,21.62
2023-01-09T17:06:45.714Z,11.12
2023-01-09T17:09:53.038Z,21.50
2023-01-09T17:12:59.516Z,19.17
2023-01-09T17:16:10.948Z,19.57
2023-01-09T17:19:16.212Z,12.73
2023-01-09T17:22:21.669Z,20.48
2023-01-09T17:25:48.586Z,22.55
2023-01-09T17:29:03.176Z,18.77
2023-01-09T17:32:08.816Z,11.30
2023-01-09T17:35:13.686Z,26.23
2023-01-09T17:38:18.579Z,12.68
2023-01-09T17:41:26.791Z,16.52
2023-01-09T17:44:25.347Z,12.75
2023-01-09T17:47:31.727Z,20.88
2023-01-09T17:50:39.463Z,14.07
2023-01-09T17:53:44.466Z,10.93
2023-01-09T17:56:51.456Z,8.63
2023-01-09T17:59:57.853Z,7.60
2023-01-09T18:03:04.159Z,14.30
2023-01-09T18:06:09.785Z,20.00
2023-01-09T18:09:15.425Z,17.20
2023-01-09T18:12:22.734Z,15.83
2023-01-09T18:15:23.351Z,14.68
2023-01-09T18:18:29.540Z,12.15
2023-01-09T18:21:37.009Z,16.75
2023-01-09T18:24:42.807Z,17.75
2023-01-09T18:27:51.242Z,16.52
2023-01-09T18:30:59.922Z,14.00
2023-01-09T18:34:08.882Z,16.97
2023-01-09T18:37:13.504Z,11.68
2023-01-09T18:40:20.144Z,15.98
2023-01-09T18:43:26.840Z,10.82
2023-01-09T18:46:32.615Z,16.70
2023-01-09T18:49:38.878Z,14.30
2023-01-09T18:52:44.357Z,11.78
2023-01-09T18:55:51.129Z,15.78
2023-01-09T18:58:56.812Z,13.00
2023-01-09T19:02:03.125Z,24.65
2023-01-09T19:05:08.063Z,16.87
2023-01-09T19:08:14.505Z,12.33
2023-01-09T19:11:20.329Z,11.73
2023-01-09T19:14:26.335Z,14.95
2023-01-09T19:17:32.402Z,16.52
2023-01-09T19:20:38.820Z,19.02
2023-01-09T19:23:44.541Z,19.60
2023-01-09T19:26:51.102Z,15.55
2023-01-09T19:29:50.773Z,23.00
2023-01-09T19:32:44.675Z,28.02
2023-01-09T19:35:44.269Z,24.10
2023-01-09T19:38:50.317Z,31.10
2023-01-09T19:41:56.162Z,21.25
2023-01-09T19:45:02.430Z,30.68
2023-01-09T19:48:08.319Z,22.22
2023-01-09T19:51:20.202Z,15.40
2023-01-09T19:54:25.900Z,15.83
2023-01-09T19:57:30.658Z,12.40
2023-01-09T20:00:36.342Z,16.07
2023-01-09T20:03:45.086Z,15.23
2023-01-09T20:06:50.226Z,11.85
2023-01-09T20:09:56.963Z,12.53
2023-01-09T20:13:03.531Z,21.07
2023-01-09T20:16:08.610Z,16.87
2023-01-09T20:19:09.538Z,12.55
2023-01-09T20:22:15.531Z,13.80
2023-01-09T20:25:22.355Z,16.45
2023-01-09T20:28:28.624Z,9.60
2023-01-09T20:31:35.153Z,10.35
2023-01-09T20:34:41.657Z,12.53
2023-01-09T20:37:47.737Z,9.83
2023-01-09T20:40:55.803Z,10.55
2023-01-09T20:44:07.824Z,16.30
2023-01-09T20:47:13.425Z,13.48
2023-01-09T20:50:18.363Z,12.55
2023-01-09T20:53:23.640Z,16.23
2023-01-09T20:56:29.687Z,9.83
2023-01-09T20:59:36.086Z,15.80
2023-01-09T21:02:41.488Z,19.23
2023-01-09T21:05:47.839Z,17.42
2023-01-09T21:08:47.752Z,13.48
2023-01-09T21:11:53.378Z,13.45
2023-01-09T21:14:59.487Z,8.50
2023-01-09T21:18:06.121Z,13.15
2023-01-09T21:21:12.379Z,13.75
2023-01-09T21:24:18.814Z,10.78
2023-01-09T21:27:18.059Z,11.63
2023-01-09T21:30:24.268Z,9.75
2023-01-09T21:33:32.893Z,13.25
2023-01-09T21:36:38.495Z,15.72
2023-01-09T21:39:46.145Z,9.18
2023-01-09T21:43:10.898Z,16.37
2023-01-09T21:46:34.499Z,13.45
2023-01-09T21:49:42.272Z,14.05
2023-01-09T21:52:47.262Z,11.90
2023-01-09T21:55:55.185Z,10.30
2023-01-09T21:58:59.805Z,16.23
2023-01-09T22:02:06.160Z,11.25
2023-01-09T22:05:10.938Z,8.10
2023-01-09T22:08:16.571Z,13.50
2023-01-09T22:11:23.288Z,10.25
2023-01-09T22:14:30.460Z,12.23
2023-01-09T22:17:36.365Z,12.63
2023-01-09T22:20:42.598Z,14.13
2023-01-09T22:23:47.465Z,13.00
2023-01-09T22:26:54.340Z,11.65
2023-01-09T22:29:59.420Z,11.08
2023-01-09T22:33:06.996Z,16.12
2023-01-09T22:36:12.236Z,7.53
2023-01-09T22:39:17.056Z,10.08
2023-01-09T22:42:24.012Z,9.88
2023-01-09T22:45:29.792Z,9.90
2023-01-09T22:48:38.090Z,15.65
2023-01-09T22:51:43.434Z,15.43
2023-01-09T22:54:49.125Z,10.48
2023-01-09T22:57:55.381Z,14.15
2023-01-09T23:01:01.905Z,10.00
2023-01-09T23:04:07.537Z,11.05
2023-01-09T23:07:06.665Z,20.95
2023-01-09T23:10:12.925Z,9.50
2023-01-09T23:13:18.445Z,12.78
2023-01-09T23:16:24.860Z,15.23
2023-01-09T23:19:23.146Z,18.23
2023-01-09T23:22:15.898Z,12.13
2023-01-09T23:25:22.420Z,12.43
2023-01-09T23:28:27.491Z,12.25
2023-01-09T23:31:34.165Z,14.95
2023-01-09T23:34:41.098Z,21.97
2023-01-09T23:37:46.374Z,9.93
2023-01-09T23:40:52.808Z,18.67
2023-01-09T23:43:58.051Z,10.58
2023-01-09T23:47:04.944Z,8.95
2023-01-09T23:50:11.298Z,12.30
2023-01-09T23:53:17.110Z,14.33
2023-01-09T23:56:22.102Z,14.98
2023-01-09T23:59:28.586Z,13.32
